sensor_id;sensor_type;location;lat;lon;timestamp;temperature;humidity
17918;DHT22;9084;50.956;3.106;2022-11-15T00:01:16;10.40;99.90
17918;DHT22;9084;50.956;3.106;2022-11-15T00:03:42;10.40;99.90
17918;DHT22;9084;50.956;3.106;2022-11-15T00:06:13;10.40;99.90
17918;DHT22;9084;50.956;3.106;2022-11-15T00:08:39;10.40;99.90
17918;DHT22;9084;50.956;3.106;2022-11-15T00:11:05;10.50;99.90
17918;DHT22;9084;50.956;3.106;2022-11-15T00:13:30;10.50;99.90
17918;DHT22;9084;50.956;3.106;2022-11-15T00:15:58;10.60;99.90
17918;DHT22;9084;50.956;3.106;2022-11-15T00:18:24;10.60;99.90
17918;DHT22;9084;50.956;3.106;2022-11-15T00:20:50;10.70;99.90
17918;DHT22;9084;50.956;3.106;2022-11-15T00:23:18;10.70;99.90
17918;DHT22;9084;50.956;3.106;2022-11-15T00:25:44;10.70;99.90
17918;DHT22;9084;50.956;3.106;2022-11-15T00:28:10;10.80;99.90
17918;DHT22;9084;50.956;3.106;2022-11-15T00:30:38;10.80;99.90
17918;DHT22;9084;50.956;3.106;2022-11-15T00:33:04;10.80;99.90
17918;DHT22;9084;50.956;3.106;2022-11-15T00:35:34;10.80;99.90
17918;DHT22;9084;50.956;3.106;2022-11-15T00:38:00;10.90;99.90
17918;DHT22;9084;50.956;3.106;2022-11-15T00:40:27;10.90;99.90
17918;DHT22;9084;50.956;3.106;2022-11-15T00:42:52;10.90;99.90
17918;DHT22;9084;50.956;3.106;2022-11-15T00:45:18;10.90;99.90
17918;DHT22;9084;50.956;3.106;2022-11-15T00:47:45;10.90;99.90
17918;DHT22;9084;50.956;3.106;2022-11-15T00:50:14;10.80;99.90
17918;DHT22;9084;50.956;3.106;2022-11-15T00:52:40;10.90;99.90
17918;DHT22;9084;50.956;3.106;2022-11-15T00:55:06;10.90;99.90
17918;DHT22;9084;50.956;3.106;2022-11-15T00:57:31;10.90;99.90
17918;DHT22;9084;50.956;3.106;2022-11-15T00:59:57;10.90;99.90
17918;DHT22;9084;50.956;3.106;2022-11-15T01:02:25;11.00;99.90
17918;DHT22;9084;50.956;3.106;2022-11-15T01:04:51;10.90;99.90
17918;DHT22;9084;50.956;3.106;2022-11-15T01:07:17;10.90;99.90
17918;DHT22;9084;50.956;3.106;2022-11-15T01:09:47;10.90;99.90
17918;DHT22;9084;50.956;3.106;2022-11-15T01:12:15;10.90;99.90
17918;DHT22;9084;50.956;3.106;2022-11-15T01:14:41;10.90;99.90
17918;DHT22;9084;50.956;3.106;2022-11-15T01:17:06;10.90;99.90
17918;DHT22;9084;50.956;3.106;2022-11-15T01:19:32;10.90;99.90
17918;DHT22;9084;50.956;3.106;2022-11-15T01:21:58;10.90;99.90
17918;DHT22;9084;50.956;3.106;2022-11-15T01:24:26;10.90;99.90
17918;DHT22;9084;50.956;3.106;2022-11-15T01:26:56;11.00;99.90
17918;DHT22;9084;50.956;3.106;2022-11-15T01:29:22;10.90;99.90
17918;DHT22;9084;50.956;3.106;2022-11-15T01:31:50;10.90;99.90
17918;DHT22;9084;50.956;3.106;2022-11-15T01:34:18;10.90;99.90
17918;DHT22;9084;50.956;3.106;2022-11-15T01:36:46;10.90;99.90
17918;DHT22;9084;50.956;3.106;2022-11-15T01:39:14;10.90;99.90
17918;DHT22;9084;50.956;3.106;2022-11-15T01:41:40;10.90;99.90
17918;DHT22;9084;50.956;3.106;2022-11-15T01:47:03;10.80;99.90
17918;DHT22;9084;50.956;3.106;2022-11-15T01:49:33;10.90;99.90
17918;DHT22;9084;50.956;3.106;2022-11-15T01:52:01;10.90;99.90
17918;DHT22;9084;50.956;3.106;2022-11-15T01:54:29;10.80;99.90
17918;DHT22;9084;50.956;3.106;2022-11-15T01:57:04;10.80;99.90
17918;DHT22;9084;50.956;3.106;2022-11-15T01:59:31;10.80;99.90
17918;DHT22;9084;50.956;3.106;2022-11-15T02:01:57;10.70;99.90
17918;DHT22;9084;50.956;3.106;2022-11-15T02:04:28;10.70;99.90
17918;DHT22;9084;50.956;3.106;2022-11-15T02:06:57;10.70;99.90
17918;DHT22;9084;50.956;3.106;2022-11-15T02:09:23;10.70;99.90
17918;DHT22;9084;50.956;3.106;2022-11-15T02:11:49;10.70;99.90
17918;DHT22;9084;50.956;3.106;2022-11-15T02:14:19;10.60;99.90
17918;DHT22;9084;50.956;3.106;2022-11-15T02:22:22;10.60;99.90
17918;DHT22;9084;50.956;3.106;2022-11-15T02:25:17;10.50;99.90
17918;DHT22;9084;50.956;3.106;2022-11-15T02:33:03;10.30;99.90
17918;DHT22;9084;50.956;3.106;2022-11-15T02:41:04;10.30;99.90
17918;DHT22;9084;50.956;3.106;2022-11-15T02:49:36;10.40;99.90
17918;DHT22;9084;50.956;3.106;2022-11-15T02:52:03;10.30;99.90
17918;DHT22;9084;50.956;3.106;2022-11-15T02:54:31;10.30;99.90
17918;DHT22;9084;50.956;3.106;2022-11-15T02:57:04;10.30;99.90
17918;DHT22;9084;50.956;3.106;2022-11-15T03:05:35;10.10;99.90
17918;DHT22;9084;50.956;3.106;2022-11-15T03:11:17;10.00;99.90
17918;DHT22;9084;50.956;3.106;2022-11-15T03:13:57;10.00;99.90
17918;DHT22;9084;50.956;3.106;2022-11-15T03:19:13;9.90;99.90
17918;DHT22;9084;50.956;3.106;2022-11-15T03:21:40;9.90;99.90
17918;DHT22;9084;50.956;3.106;2022-11-15T03:24:09;9.90;99.90
17918;DHT22;9084;50.956;3.106;2022-11-15T03:26:38;9.80;99.90
17918;DHT22;9084;50.956;3.106;2022-11-15T03:29:14;9.80;99.90
17918;DHT22;9084;50.956;3.106;2022-11-15T03:31:49;9.70;99.90
17918;DHT22;9084;50.956;3.106;2022-11-15T03:37:01;9.70;99.90
17918;DHT22;9084;50.956;3.106;2022-11-15T03:39:30;9.60;99.90
17918;DHT22;9084;50.956;3.106;2022-11-15T03:44:58;9.60;99.90
17918;DHT22;9084;50.956;3.106;2022-11-15T03:47:31;9.60;99.90
17918;DHT22;9084;50.956;3.106;2022-11-15T03:50:03;9.60;99.90
17918;DHT22;9084;50.956;3.106;2022-11-15T03:52:32;9.50;99.90
17918;DHT22;9084;50.956;3.106;2022-11-15T03:55:03;9.50;99.90
17918;DHT22;9084;50.956;3.106;2022-11-15T03:57:29;9.50;99.90
17918;DHT22;9084;50.956;3.106;2022-11-15T03:59:55;9.40;99.90
17918;DHT22;9084;50.956;3.106;2022-11-15T04:02:24;9.40;99.90
17918;DHT22;9084;50.956;3.106;2022-11-15T04:04:52;9.40;99.90
17918;DHT22;9084;50.956;3.106;2022-11-15T04:07:17;9.40;99.90
17918;DHT22;9084;50.956;3.106;2022-11-15T04:09:46;9.30;99.90
17918;DHT22;9084;50.956;3.106;2022-11-15T04:12:35;9.30;99.90
17918;DHT22;9084;50.956;3.106;2022-11-15T04:15:06;9.30;99.90
17918;DHT22;9084;50.956;3.106;2022-11-15T04:20:12;9.20;99.90
17918;DHT22;9084;50.956;3.106;2022-11-15T04:23:01;9.10;99.90
17918;DHT22;9084;50.956;3.106;2022-11-15T04:25:48;9.10;99.90
17918;DHT22;9084;50.956;3.106;2022-11-15T04:28:14;9.00;99.90
17918;DHT22;9084;50.956;3.106;2022-11-15T04:30:40;9.00;99.90
17918;DHT22;9084;50.956;3.106;2022-11-15T04:33:08;9.00;99.90
17918;DHT22;9084;50.956;3.106;2022-11-15T04:35:34;9.00;99.90
17918;DHT22;9084;50.956;3.106;2022-11-15T04:38:01;9.00;99.90
17918;DHT22;9084;50.956;3.106;2022-11-15T04:40:26;9.00;99.90
17918;DHT22;9084;50.956;3.106;2022-11-15T04:42:55;8.90;99.90
17918;DHT22;9084;50.956;3.106;2022-11-15T04:45:21;8.90;99.90
17918;DHT22;9084;50.956;3.106;2022-11-15T04:47:47;8.90;99.90
17918;DHT22;9084;50.956;3.106;2022-11-15T04:50:14;8.90;99.90
17918;DHT22;9084;50.956;3.106;2022-11-15T04:52:42;8.90;99.90
17918;DHT22;9084;50.956;3.106;2022-11-15T04:55:10;8.90;99.90
17918;DHT22;9084;50.956;3.106;2022-11-15T04:57:37;8.90;99.90
17918;DHT22;9084;50.956;3.106;2022-11-15T05:00:07;8.90;99.90
17918;DHT22;9084;50.956;3.106;2022-11-15T05:02:34;8.80;99.90
17918;DHT22;9084;50.956;3.106;2022-11-15T05:05:21;8.80;99.90
17918;DHT22;9084;50.956;3.106;2022-11-15T05:07:47;8.80;99.90
17918;DHT22;9084;50.956;3.106;2022-11-15T05:10:18;8.70;99.90
17918;DHT22;9084;50.956;3.106;2022-11-15T05:12:47;8.80;99.90
17918;DHT22;9084;50.956;3.106;2022-11-15T05:15:15;8.80;99.90
17918;DHT22;9084;50.956;3.106;2022-11-15T05:17:46;8.80;99.90
17918;DHT22;9084;50.956;3.106;2022-11-15T05:20:14;8.70;99.90
17918;DHT22;9084;50.956;3.106;2022-11-15T05:22:40;8.70;99.90
17918;DHT22;9084;50.956;3.106;2022-11-15T05:25:07;8.60;99.90
17918;DHT22;9084;50.956;3.106;2022-11-15T05:27:34;8.70;99.90
17918;DHT22;9084;50.956;3.106;2022-11-15T05:30:02;8.60;99.90
17918;DHT22;9084;50.956;3.106;2022-11-15T05:32:29;8.60;99.90
17918;DHT22;9084;50.956;3.106;2022-11-15T05:34:55;8.60;99.90
17918;DHT22;9084;50.956;3.106;2022-11-15T05:37:21;8.60;99.90
17918;DHT22;9084;50.956;3.106;2022-11-15T05:39:49;8.60;99.90
17918;DHT22;9084;50.956;3.106;2022-11-15T05:42:16;8.50;99.90
17918;DHT22;9084;50.956;3.106;2022-11-15T05:44:46;8.40;99.90
17918;DHT22;9084;50.956;3.106;2022-11-15T05:47:17;8.50;99.90
17918;DHT22;9084;50.956;3.106;2022-11-15T05:49:44;8.50;99.90
17918;DHT22;9084;50.956;3.106;2022-11-15T05:52:14;8.50;99.90
17918;DHT22;9084;50.956;3.106;2022-11-15T05:54:43;8.40;99.90
17918;DHT22;9084;50.956;3.106;2022-11-15T05:57:12;8.50;99.90
17918;DHT22;9084;50.956;3.106;2022-11-15T05:59:40;8.50;99.90
17918;DHT22;9084;50.956;3.106;2022-11-15T06:02:11;8.40;99.90
17918;DHT22;9084;50.956;3.106;2022-11-15T06:04:42;8.40;99.90
17918;DHT22;9084;50.956;3.106;2022-11-15T06:07:10;8.40;99.90
17918;DHT22;9084;50.956;3.106;2022-11-15T06:09:38;8.40;99.90
17918;DHT22;9084;50.956;3.106;2022-11-15T06:12:05;8.40;99.90
17918;DHT22;9084;50.956;3.106;2022-11-15T06:14:35;8.40;99.90
17918;DHT22;9084;50.956;3.106;2022-11-15T06:17:01;8.30;99.90
17918;DHT22;9084;50.956;3.106;2022-11-15T06:19:28;8.40;99.90
17918;DHT22;9084;50.956;3.106;2022-11-15T06:21:59;8.30;99.90
17918;DHT22;9084;50.956;3.106;2022-11-15T06:24:27;8.30;99.90
17918;DHT22;9084;50.956;3.106;2022-11-15T06:26:53;8.40;99.90
17918;DHT22;9084;50.956;3.106;2022-11-15T06:29:22;8.40;99.90
17918;DHT22;9084;50.956;3.106;2022-11-15T06:31:48;8.40;99.90
17918;DHT22;9084;50.956;3.106;2022-11-15T06:34:14;8.40;99.90
17918;DHT22;9084;50.956;3.106;2022-11-15T06:36:40;8.40;99.90
17918;DHT22;9084;50.956;3.106;2022-11-15T06:39:08;8.30;99.90
17918;DHT22;9084;50.956;3.106;2022-11-15T06:41:37;8.40;99.90
17918;DHT22;9084;50.956;3.106;2022-11-15T06:44:02;8.40;99.90
17918;DHT22;9084;50.956;3.106;2022-11-15T06:46:30;8.40;99.90
17918;DHT22;9084;50.956;3.106;2022-11-15T06:48:59;8.40;99.90
17918;DHT22;9084;50.956;3.106;2022-11-15T06:51:27;8.40;99.90
17918;DHT22;9084;50.956;3.106;2022-11-15T06:53:53;8.40;99.90
17918;DHT22;9084;50.956;3.106;2022-11-15T06:56:18;8.50;99.90
17918;DHT22;9084;50.956;3.106;2022-11-15T06:58:44;8.50;99.90
17918;DHT22;9084;50.956;3.106;2022-11-15T07:01:12;8.50;99.90
17918;DHT22;9084;50.956;3.106;2022-11-15T07:03:40;8.50;99.90
17918;DHT22;9084;50.956;3.106;2022-11-15T07:06:09;8.50;99.90
17918;DHT22;9084;50.956;3.106;2022-11-15T07:08:38;8.50;99.90
17918;DHT22;9084;50.956;3.106;2022-11-15T07:11:09;8.60;99.90
17918;DHT22;9084;50.956;3.106;2022-11-15T07:13:35;8.60;99.90
17918;DHT22;9084;50.956;3.106;2022-11-15T07:16:07;8.70;99.90
17918;DHT22;9084;50.956;3.106;2022-11-15T07:18:37;8.70;99.90
17918;DHT22;9084;50.956;3.106;2022-11-15T07:21:08;8.80;99.90
17918;DHT22;9084;50.956;3.106;2022-11-15T07:23:37;8.70;99.90
17918;DHT22;9084;50.956;3.106;2022-11-15T07:26:06;8.80;99.90
17918;DHT22;9084;50.956;3.106;2022-11-15T07:28:35;8.80;99.90
17918;DHT22;9084;50.956;3.106;2022-11-15T07:31:08;8.80;99.90
17918;DHT22;9084;50.956;3.106;2022-11-15T07:33:34;8.80;99.90
17918;DHT22;9084;50.956;3.106;2022-11-15T07:36:04;8.80;99.90
17918;DHT22;9084;50.956;3.106;2022-11-15T07:38:32;8.90;99.90
17918;DHT22;9084;50.956;3.106;2022-11-15T07:41:03;9.00;99.90
17918;DHT22;9084;50.956;3.106;2022-11-15T07:43:30;9.00;99.90
17918;DHT22;9084;50.956;3.106;2022-11-15T07:46:05;9.00;99.90
17918;DHT22;9084;50.956;3.106;2022-11-15T07:48:32;9.00;99.90
17918;DHT22;9084;50.956;3.106;2022-11-15T07:50:58;9.10;99.90
17918;DHT22;9084;50.956;3.106;2022-11-15T07:53:24;9.10;99.90
17918;DHT22;9084;50.956;3.106;2022-11-15T07:55:50;9.20;99.90
17918;DHT22;9084;50.956;3.106;2022-11-15T07:58:16;9.20;99.90
17918;DHT22;9084;50.956;3.106;2022-11-15T08:00:43;9.20;99.90
17918;DHT22;9084;50.956;3.106;2022-11-15T08:03:11;9.20;99.90
17918;DHT22;9084;50.956;3.106;2022-11-15T08:05:40;9.30;99.90
17918;DHT22;9084;50.956;3.106;2022-11-15T08:08:10;9.30;99.90
17918;DHT22;9084;50.956;3.106;2022-11-15T08:10:37;9.30;99.90
17918;DHT22;9084;50.956;3.106;2022-11-15T08:13:05;9.30;99.90
17918;DHT22;9084;50.956;3.106;2022-11-15T08:15:32;9.30;99.90
17918;DHT22;9084;50.956;3.106;2022-11-15T08:18:01;9.40;99.90
17918;DHT22;9084;50.956;3.106;2022-11-15T08:20:31;9.50;99.90
17918;DHT22;9084;50.956;3.106;2022-11-15T08:22:57;9.60;99.90
17918;DHT22;9084;50.956;3.106;2022-11-15T08:25:27;9.50;99.90
17918;DHT22;9084;50.956;3.106;2022-11-15T08:27:54;9.60;99.90
17918;DHT22;9084;50.956;3.106;2022-11-15T08:30:23;9.60;99.90
17918;DHT22;9084;50.956;3.106;2022-11-15T08:32:50;9.60;99.90
17918;DHT22;9084;50.956;3.106;2022-11-15T08:35:16;9.60;99.90
17918;DHT22;9084;50.956;3.106;2022-11-15T08:37:44;9.60;99.90
17918;DHT22;9084;50.956;3.106;2022-11-15T08:40:14;9.60;99.90
17918;DHT22;9084;50.956;3.106;2022-11-15T08:42:41;9.60;99.90
17918;DHT22;9084;50.956;3.106;2022-11-15T08:45:08;9.70;99.90
17918;DHT22;9084;50.956;3.106;2022-11-15T08:47:35;9.70;99.90
17918;DHT22;9084;50.956;3.106;2022-11-15T08:50:03;9.70;99.90
17918;DHT22;9084;50.956;3.106;2022-11-15T08:52:29;9.80;99.90
17918;DHT22;9084;50.956;3.106;2022-11-15T08:54:55;9.80;99.90
17918;DHT22;9084;50.956;3.106;2022-11-15T08:57:21;9.90;99.90
17918;DHT22;9084;50.956;3.106;2022-11-15T08:59:49;9.90;99.90
17918;DHT22;9084;50.956;3.106;2022-11-15T09:02:15;10.00;99.90
17918;DHT22;9084;50.956;3.106;2022-11-15T09:04:44;10.10;99.90
17918;DHT22;9084;50.956;3.106;2022-11-15T09:07:13;10.10;99.90
17918;DHT22;9084;50.956;3.106;2022-11-15T09:09:38;10.20;99.90
17918;DHT22;9084;50.956;3.106;2022-11-15T09:12:06;10.30;99.90
17918;DHT22;9084;50.956;3.106;2022-11-15T09:14:34;10.40;99.90
17918;DHT22;9084;50.956;3.106;2022-11-15T09:17:01;10.50;99.90
17918;DHT22;9084;50.956;3.106;2022-11-15T09:19:28;10.50;99.90
17918;DHT22;9084;50.956;3.106;2022-11-15T09:21:55;10.60;99.90
17918;DHT22;9084;50.956;3.106;2022-11-15T09:24:24;10.60;99.90
17918;DHT22;9084;50.956;3.106;2022-11-15T09:26:52;10.70;99.90
17918;DHT22;9084;50.956;3.106;2022-11-15T09:29:18;10.80;99.90
17918;DHT22;9084;50.956;3.106;2022-11-15T09:31:44;10.90;99.90
17918;DHT22;9084;50.956;3.106;2022-11-15T09:34:11;10.90;99.90
17918;DHT22;9084;50.956;3.106;2022-11-15T09:36:39;11.00;99.90
17918;DHT22;9084;50.956;3.106;2022-11-15T09:39:08;11.00;99.90
17918;DHT22;9084;50.956;3.106;2022-11-15T09:47:00;11.30;99.90
17918;DHT22;9084;50.956;3.106;2022-11-15T09:49:33;11.40;99.90
17918;DHT22;9084;50.956;3.106;2022-11-15T09:52:01;11.40;99.90
17918;DHT22;9084;50.956;3.106;2022-11-15T09:54:38;11.50;99.90
17918;DHT22;9084;50.956;3.106;2022-11-15T09:57:12;11.50;99.90
17918;DHT22;9084;50.956;3.106;2022-11-15T10:00:02;11.50;99.90
17918;DHT22;9084;50.956;3.106;2022-11-15T10:05:22;11.50;99.90
17918;DHT22;9084;50.956;3.106;2022-11-15T10:10:43;11.50;99.90
17918;DHT22;9084;50.956;3.106;2022-11-15T10:13:21;11.40;99.90
17918;DHT22;9084;50.956;3.106;2022-11-15T10:15:54;11.50;99.90
17918;DHT22;9084;50.956;3.106;2022-11-15T10:21:19;11.40;99.90
17918;DHT22;9084;50.956;3.106;2022-11-15T10:23:48;11.40;99.90
17918;DHT22;9084;50.956;3.106;2022-11-15T10:26:17;11.40;99.90
17918;DHT22;9084;50.956;3.106;2022-11-15T10:28:43;11.40;99.90
17918;DHT22;9084;50.956;3.106;2022-11-15T10:31:24;11.40;99.90
17918;DHT22;9084;50.956;3.106;2022-11-15T10:33:51;11.50;99.90
17918;DHT22;9084;50.956;3.106;2022-11-15T10:36:23;11.50;99.90
17918;DHT22;9084;50.956;3.106;2022-11-15T10:41:30;11.80;99.90
17918;DHT22;9084;50.956;3.106;2022-11-15T10:44:31;11.80;99.90
17918;DHT22;9084;50.956;3.106;2022-11-15T10:49:27;12.00;99.90
17918;DHT22;9084;50.956;3.106;2022-11-15T10:54:43;12.00;99.90
17918;DHT22;9084;50.956;3.106;2022-11-15T10:57:22;12.10;99.90
17918;DHT22;9084;50.956;3.106;2022-11-15T10:59:52;12.20;99.90
17918;DHT22;9084;50.956;3.106;2022-11-15T11:02:32;12.20;99.90
17918;DHT22;9084;50.956;3.106;2022-11-15T11:04:59;12.20;99.90
17918;DHT22;9084;50.956;3.106;2022-11-15T11:07:31;12.30;99.90
17918;DHT22;9084;50.956;3.106;2022-11-15T11:10:17;12.30;99.90
17918;DHT22;9084;50.956;3.106;2022-11-15T11:12:42;12.30;99.90
17918;DHT22;9084;50.956;3.106;2022-11-15T11:15:15;12.30;99.90
17918;DHT22;9084;50.956;3.106;2022-11-15T11:18:07;12.40;99.90
17918;DHT22;9084;50.956;3.106;2022-11-15T11:20:41;12.50;99.90
17918;DHT22;9084;50.956;3.106;2022-11-15T11:26:11;12.80;99.90
17918;DHT22;9084;50.956;3.106;2022-11-15T11:28:45;12.90;99.90
17918;DHT22;9084;50.956;3.106;2022-11-15T11:37:02;13.00;99.90
17918;DHT22;9084;50.956;3.106;2022-11-15T11:39:39;12.90;99.90
17918;DHT22;9084;50.956;3.106;2022-11-15T11:51:01;12.60;99.90
17918;DHT22;9084;50.956;3.106;2022-11-15T11:54:00;12.60;99.90
17918;DHT22;9084;50.956;3.106;2022-11-15T11:56:33;12.50;99.90
17918;DHT22;9084;50.956;3.106;2022-11-15T11:59:16;12.50;99.90
17918;DHT22;9084;50.956;3.106;2022-11-15T12:01:45;12.50;99.90
17918;DHT22;9084;50.956;3.106;2022-11-15T12:04:26;12.50;99.90
17918;DHT22;9084;50.956;3.106;2022-11-15T12:10:01;12.50;99.90
17918;DHT22;9084;50.956;3.106;2022-11-15T12:15:29;12.60;99.90
17918;DHT22;9084;50.956;3.106;2022-11-15T12:17:57;12.60;99.90
17918;DHT22;9084;50.956;3.106;2022-11-15T12:20:35;12.70;99.90
17918;DHT22;9084;50.956;3.106;2022-11-15T12:23:19;12.60;99.90
17918;DHT22;9084;50.956;3.106;2022-11-15T12:25:53;12.60;99.90
17918;DHT22;9084;50.956;3.106;2022-11-15T12:28:48;12.60;99.90
17918;DHT22;9084;50.956;3.106;2022-11-15T12:31:42;12.60;99.90
17918;DHT22;9084;50.956;3.106;2022-11-15T12:36:50;12.60;99.90
17918;DHT22;9084;50.956;3.106;2022-11-15T12:39:17;12.60;99.90
17918;DHT22;9084;50.956;3.106;2022-11-15T12:47:24;12.60;99.90
17918;DHT22;9084;50.956;3.106;2022-11-15T12:49:52;12.50;99.90
17918;DHT22;9084;50.956;3.106;2022-11-15T12:52:19;12.40;99.90
17918;DHT22;9084;50.956;3.106;2022-11-15T12:54:54;12.40;99.90
17918;DHT22;9084;50.956;3.106;2022-11-15T12:57:27;12.30;99.90
17918;DHT22;9084;50.956;3.106;2022-11-15T13:17:55;12.20;99.90
17918;DHT22;9084;50.956;3.106;2022-11-15T13:20:26;12.20;99.90
17918;DHT22;9084;50.956;3.106;2022-11-15T13:22:53;12.20;99.90
17918;DHT22;9084;50.956;3.106;2022-11-15T13:33:49;12.00;99.90
17918;DHT22;9084;50.956;3.106;2022-11-15T13:36:15;12.00;99.90
17918;DHT22;9084;50.956;3.106;2022-11-15T13:38:43;12.00;99.90
17918;DHT22;9084;50.956;3.106;2022-11-15T13:41:19;11.90;99.90
17918;DHT22;9084;50.956;3.106;2022-11-15T13:43:46;11.90;99.90
17918;DHT22;9084;50.956;3.106;2022-11-15T13:46:21;11.80;99.90
17918;DHT22;9084;50.956;3.106;2022-11-15T13:48:54;11.80;99.90
17918;DHT22;9084;50.956;3.106;2022-11-15T13:51:49;11.70;99.90
17918;DHT22;9084;50.956;3.106;2022-11-15T13:54:25;11.70;99.90
17918;DHT22;9084;50.956;3.106;2022-11-15T13:56:57;11.60;99.90
17918;DHT22;9084;50.956;3.106;2022-11-15T14:01:52;11.50;99.90
17918;DHT22;9084;50.956;3.106;2022-11-15T14:04:22;11.50;99.90
17918;DHT22;9084;50.956;3.106;2022-11-15T14:06:56;11.50;99.90
17918;DHT22;9084;50.956;3.106;2022-11-15T14:09:40;11.50;99.90
17918;DHT22;9084;50.956;3.106;2022-11-15T14:12:31;11.50;99.90
17918;DHT22;9084;50.956;3.106;2022-11-15T14:14:58;11.50;99.90
17918;DHT22;9084;50.956;3.106;2022-11-15T14:19:57;11.40;99.90
17918;DHT22;9084;50.956;3.106;2022-11-15T14:22:25;11.40;99.90
17918;DHT22;9084;50.956;3.106;2022-11-15T14:27:41;11.30;99.90
17918;DHT22;9084;50.956;3.106;2022-11-15T14:30:16;11.30;99.90
17918;DHT22;9084;50.956;3.106;2022-11-15T14:32:45;11.40;99.90
17918;DHT22;9084;50.956;3.106;2022-11-15T14:35:19;11.40;99.90
17918;DHT22;9084;50.956;3.106;2022-11-15T14:37:46;11.40;99.90
17918;DHT22;9084;50.956;3.106;2022-11-15T14:40:14;11.30;99.90
17918;DHT22;9084;50.956;3.106;2022-11-15T14:42:41;11.30;99.90
17918;DHT22;9084;50.956;3.106;2022-11-15T14:45:18;11.40;99.90
17918;DHT22;9084;50.956;3.106;2022-11-15T14:47:44;11.40;99.90
17918;DHT22;9084;50.956;3.106;2022-11-15T14:50:15;11.30;99.90
17918;DHT22;9084;50.956;3.106;2022-11-15T14:52:44;11.40;99.90
17918;DHT22;9084;50.956;3.106;2022-11-15T14:55:22;11.40;99.90
17918;DHT22;9084;50.956;3.106;2022-11-15T14:57:52;11.40;99.90
17918;DHT22;9084;50.956;3.106;2022-11-15T15:00:23;11.40;99.90
17918;DHT22;9084;50.956;3.106;2022-11-15T15:02:49;11.40;99.90
17918;DHT22;9084;50.956;3.106;2022-11-15T15:05:23;11.40;99.90
17918;DHT22;9084;50.956;3.106;2022-11-15T15:07:49;11.40;99.90
17918;DHT22;9084;50.956;3.106;2022-11-15T15:10:19;11.40;99.90
17918;DHT22;9084;50.956;3.106;2022-11-15T15:12:48;11.40;99.90
17918;DHT22;9084;50.956;3.106;2022-11-15T15:15:23;11.40;99.90
17918;DHT22;9084;50.956;3.106;2022-11-15T15:17:51;11.40;99.90
17918;DHT22;9084;50.956;3.106;2022-11-15T15:20:19;11.40;99.90
17918;DHT22;9084;50.956;3.106;2022-11-15T15:22:45;11.40;99.90
17918;DHT22;9084;50.956;3.106;2022-11-15T15:25:28;11.40;99.90
17918;DHT22;9084;50.956;3.106;2022-11-15T15:27:56;11.40;99.90
17918;DHT22;9084;50.956;3.106;2022-11-15T15:30:22;11.40;99.90
17918;DHT22;9084;50.956;3.106;2022-11-15T15:32:49;11.40;99.90
17918;DHT22;9084;50.956;3.106;2022-11-15T15:35:17;11.50;99.90
17918;DHT22;9084;50.956;3.106;2022-11-15T15:37:47;11.50;99.90
17918;DHT22;9084;50.956;3.106;2022-11-15T15:40:20;11.50;99.90
17918;DHT22;9084;50.956;3.106;2022-11-15T15:42:50;11.50;99.90
17918;DHT22;9084;50.956;3.106;2022-11-15T15:45:17;11.50;99.90
17918;DHT22;9084;50.956;3.106;2022-11-15T15:47:45;11.50;99.90
17918;DHT22;9084;50.956;3.106;2022-11-15T15:52:51;11.50;99.90
17918;DHT22;9084;50.956;3.106;2022-11-15T15:55:18;11.50;99.90
17918;DHT22;9084;50.956;3.106;2022-11-15T15:57:44;11.60;99.90
17918;DHT22;9084;50.956;3.106;2022-11-15T16:00:12;11.50;99.90
17918;DHT22;9084;50.956;3.106;2022-11-15T16:02:41;11.50;99.90
17918;DHT22;9084;50.956;3.106;2022-11-15T16:05:10;11.50;99.90
17918;DHT22;9084;50.956;3.106;2022-11-15T16:07:37;11.50;99.90
17918;DHT22;9084;50.956;3.106;2022-11-15T16:12:44;11.60;99.90
17918;DHT22;9084;50.956;3.106;2022-11-15T16:15:10;11.60;99.90
17918;DHT22;9084;50.956;3.106;2022-11-15T16:17:41;11.60;99.90
17918;DHT22;9084;50.956;3.106;2022-11-15T16:20:35;11.60;99.90
17918;DHT22;9084;50.956;3.106;2022-11-15T16:23:06;11.60;99.90
17918;DHT22;9084;50.956;3.106;2022-11-15T16:25:39;11.60;99.90
17918;DHT22;9084;50.956;3.106;2022-11-15T16:28:43;11.60;99.90
17918;DHT22;9084;50.956;3.106;2022-11-15T16:31:12;11.70;99.90
17918;DHT22;9084;50.956;3.106;2022-11-15T16:33:39;11.70;99.90
17918;DHT22;9084;50.956;3.106;2022-11-15T16:36:11;11.60;99.90
17918;DHT22;9084;50.956;3.106;2022-11-15T16:38:38;11.70;99.90
17918;DHT22;9084;50.956;3.106;2022-11-15T16:41:04;11.70;99.90
17918;DHT22;9084;50.956;3.106;2022-11-15T16:43:30;11.70;99.90
17918;DHT22;9084;50.956;3.106;2022-11-15T16:45:55;11.70;99.90
17918;DHT22;9084;50.956;3.106;2022-11-15T16:48:26;11.70;99.90
17918;DHT22;9084;50.956;3.106;2022-11-15T16:50:57;11.70;99.90
17918;DHT22;9084;50.956;3.106;2022-11-15T16:53:24;11.70;99.90
17918;DHT22;9084;50.956;3.106;2022-11-15T16:55:50;11.70;99.90
17918;DHT22;9084;50.956;3.106;2022-11-15T16:58:19;11.70;99.90
17918;DHT22;9084;50.956;3.106;2022-11-15T17:00:52;11.70;99.90
17918;DHT22;9084;50.956;3.106;2022-11-15T17:03:20;11.70;99.90
17918;DHT22;9084;50.956;3.106;2022-11-15T17:05:49;11.70;99.90
17918;DHT22;9084;50.956;3.106;2022-11-15T17:08:17;11.70;99.90
17918;DHT22;9084;50.956;3.106;2022-11-15T17:10:46;11.70;99.90
17918;DHT22;9084;50.956;3.106;2022-11-15T17:13:14;11.70;99.90
17918;DHT22;9084;50.956;3.106;2022-11-15T17:15:40;11.70;99.90
17918;DHT22;9084;50.956;3.106;2022-11-15T17:18:11;11.60;99.90
17918;DHT22;9084;50.956;3.106;2022-11-15T17:20:40;11.60;99.90
17918;DHT22;9084;50.956;3.106;2022-11-15T17:23:13;11.60;99.90
17918;DHT22;9084;50.956;3.106;2022-11-15T17:25:41;11.60;99.90
17918;DHT22;9084;50.956;3.106;2022-11-15T17:28:07;11.60;99.90
17918;DHT22;9084;50.956;3.106;2022-11-15T17:30:33;11.60;99.90
17918;DHT22;9084;50.956;3.106;2022-11-15T17:33:01;11.60;99.90
17918;DHT22;9084;50.956;3.106;2022-11-15T17:35:27;11.60;99.90
17918;DHT22;9084;50.956;3.106;2022-11-15T17:37:55;11.50;99.90
17918;DHT22;9084;50.956;3.106;2022-11-15T17:40:21;11.50;99.90
17918;DHT22;9084;50.956;3.106;2022-11-15T17:42:50;11.50;99.90
17918;DHT22;9084;50.956;3.106;2022-11-15T17:45:16;11.50;99.90
17918;DHT22;9084;50.956;3.106;2022-11-15T17:47:42;11.50;99.90
17918;DHT22;9084;50.956;3.106;2022-11-15T17:50:08;11.50;99.90
17918;DHT22;9084;50.956;3.106;2022-11-15T17:52:35;11.50;99.90
17918;DHT22;9084;50.956;3.106;2022-11-15T17:55:07;11.60;99.90
17918;DHT22;9084;50.956;3.106;2022-11-15T17:57:34;11.60;99.90
17918;DHT22;9084;50.956;3.106;2022-11-15T17:59:59;11.60;99.90
17918;DHT22;9084;50.956;3.106;2022-11-15T18:02:29;11.60;99.90
17918;DHT22;9084;50.956;3.106;2022-11-15T18:04:57;11.60;99.90
17918;DHT22;9084;50.956;3.106;2022-11-15T18:07:23;11.70;99.90
17918;DHT22;9084;50.956;3.106;2022-11-15T18:09:49;11.70;99.90
17918;DHT22;9084;50.956;3.106;2022-11-15T18:12:22;11.70;99.90
17918;DHT22;9084;50.956;3.106;2022-11-15T18:14:50;11.70;99.90
17918;DHT22;9084;50.956;3.106;2022-11-15T18:17:16;11.70;99.90
17918;DHT22;9084;50.956;3.106;2022-11-15T18:19:43;11.80;99.90
17918;DHT22;9084;50.956;3.106;2022-11-15T18:22:14;11.80;99.90
17918;DHT22;9084;50.956;3.106;2022-11-15T18:24:42;11.80;99.90
17918;DHT22;9084;50.956;3.106;2022-11-15T18:27:16;11.80;99.90